sensor_id;sensor_type;location;lat;lon;timestamp;pressure;altitude;pressure_sealevel;temperature;humidity
49030;BME280;43337;52.070;4.508;2023-08-17T00:01:48;102241.56;;;19.02;100.00
49030;BME280;43337;52.070;4.508;2023-08-17T00:04:13;102221.88;;;18.89;100.00
49030;BME280;43337;52.070;4.508;2023-08-17T00:06:39;102248.81;;;19.00;100.00
49030;BME280;43337;52.070;4.508;2023-08-17T00:09:04;102254.16;;;19.00;100.00
49030;BME280;43337;52.070;4.508;2023-08-17T00:11:30;102242.97;;;18.93;100.00
49030;BME280;43337;52.070;4.508;2023-08-17T00:13:55;102249.41;;;18.89;100.00
49030;BME280;43337;52.070;4.508;2023-08-17T00:16:20;102233.81;;;18.82;100.00
49030;BME280;43337;52.070;4.508;2023-08-17T00:18:47;102243.63;;;18.81;100.00
49030;BME280;43337;52.070;4.508;2023-08-17T00:21:13;102258.28;;;18.90;100.00
49030;BME280;43337;52.070;4.508;2023-08-17T00:23:38;102259.94;;;18.92;100.00
49030;BME280;43337;52.070;4.508;2023-08-17T00:26:04;102260.00;;;18.91;100.00
49030;BME280;43337;52.070;4.508;2023-08-17T00:28:29;102237.50;;;18.79;100.00
49030;BME280;43337;52.070;4.508;2023-08-17T00:30:55;102231.56;;;18.74;100.00
49030;BME280;43337;52.070;4.508;2023-08-17T00:33:20;102240.19;;;18.79;100.00
49030;BME280;43337;52.070;4.508;2023-08-17T00:35:46;102240.38;;;18.76;100.00
49030;BME280;43337;52.070;4.508;2023-08-17T00:38:12;102243.91;;;18.76;100.00
49030;BME280;43337;52.070;4.508;2023-08-17T00:40:38;102252.41;;;18.83;100.00
49030;BME280;43337;52.070;4.508;2023-08-17T00:43:05;102242.16;;;18.75;100.00
49030;BME280;43337;52.070;4.508;2023-08-17T00:45:31;102231.09;;;18.66;100.00
49030;BME280;43337;52.070;4.508;2023-08-17T00:47:58;102253.63;;;18.77;100.00
49030;BME280;43337;52.070;4.508;2023-08-17T00:50:25;102219.88;;;18.59;100.00
49030;BME280;43337;52.070;4.508;2023-08-17T00:52:52;102241.53;;;18.70;100.00
49030;BME280;43337;52.070;4.508;2023-08-17T00:55:18;102231.66;;;18.55;100.00
49030;BME280;43337;52.070;4.508;2023-08-17T00:57:44;102256.13;;;18.63;100.00
49030;BME280;43337;52.070;4.508;2023-08-17T01:00:12;102253.63;;;18.60;100.00
49030;BME280;43337;52.070;4.508;2023-08-17T01:02:39;102236.72;;;18.44;100.00
49030;BME280;43337;52.070;4.508;2023-08-17T01:05:05;102248.69;;;18.52;100.00
49030;BME280;43337;52.070;4.508;2023-08-17T01:07:31;102251.34;;;18.52;100.00
49030;BME280;43337;52.070;4.508;2023-08-17T01:09:57;102257.66;;;18.51;100.00
49030;BME280;43337;52.070;4.508;2023-08-17T01:12:30;102251.56;;;18.49;100.00
49030;BME280;43337;52.070;4.508;2023-08-17T01:17:33;102250.75;;;18.47;100.00
49030;BME280;43337;52.070;4.508;2023-08-17T01:19:58;102244.81;;;18.42;100.00
49030;BME280;43337;52.070;4.508;2023-08-17T01:22:26;102248.09;;;18.47;100.00
49030;BME280;43337;52.070;4.508;2023-08-17T01:24:56;102252.56;;;18.47;100.00
49030;BME280;43337;52.070;4.508;2023-08-17T01:27:24;102253.56;;;18.44;100.00
49030;BME280;43337;52.070;4.508;2023-08-17T01:29:51;102251.94;;;18.42;100.00
49030;BME280;43337;52.070;4.508;2023-08-17T01:32:26;102237.38;;;18.32;100.00
49030;BME280;43337;52.070;4.508;2023-08-17T01:35:00;102243.41;;;18.35;100.00
49030;BME280;43337;52.070;4.508;2023-08-17T01:37:31;102214.97;;;18.18;100.00
49030;BME280;43337;52.070;4.508;2023-08-17T01:39:59;102222.97;;;18.18;100.00
49030;BME280;43337;52.070;4.508;2023-08-17T01:42:25;102229.47;;;18.13;100.00
49030;BME280;43337;52.070;4.508;2023-08-17T01:44:50;102224.28;;;18.10;100.00
49030;BME280;43337;52.070;4.508;2023-08-17T01:47:20;102245.06;;;18.20;100.00
49030;BME280;43337;52.070;4.508;2023-08-17T01:49:46;102226.19;;;18.08;100.00
49030;BME280;43337;52.070;4.508;2023-08-17T01:52:11;102230.41;;;18.12;100.00
49030;BME280;43337;52.070;4.508;2023-08-17T01:54:37;102238.25;;;18.15;100.00
49030;BME280;43337;52.070;4.508;2023-08-17T01:57:02;102231.19;;;18.14;100.00
49030;BME280;43337;52.070;4.508;2023-08-17T01:59:28;102234.91;;;18.11;100.00
49030;BME280;43337;52.070;4.508;2023-08-17T02:01:53;102223.13;;;17.98;100.00
49030;BME280;43337;52.070;4.508;2023-08-17T02:04:18;102215.22;;;17.96;100.00
49030;BME280;43337;52.070;4.508;2023-08-17T02:06:44;102233.47;;;18.04;100.00
49030;BME280;43337;52.070;4.508;2023-08-17T02:09:09;102233.72;;;17.99;100.00
49030;BME280;43337;52.070;4.508;2023-08-17T02:11:34;102209.19;;;17.93;100.00
49030;BME280;43337;52.070;4.508;2023-08-17T02:14:00;102214.81;;;17.87;100.00
49030;BME280;43337;52.070;4.508;2023-08-17T02:16:25;102206.28;;;17.80;100.00
49030;BME280;43337;52.070;4.508;2023-08-17T02:18:50;102225.41;;;17.88;100.00
49030;BME280;43337;52.070;4.508;2023-08-17T02:21:15;102228.09;;;17.88;100.00
49030;BME280;43337;52.070;4.508;2023-08-17T02:23:41;102215.28;;;17.77;100.00
49030;BME280;43337;52.070;4.508;2023-08-17T02:26:06;102217.22;;;17.74;100.00
49030;BME280;43337;52.070;4.508;2023-08-17T02:28:31;102210.41;;;17.68;100.00
49030;BME280;43337;52.070;4.508;2023-08-17T02:30:58;102229.31;;;17.81;100.00
49030;BME280;43337;52.070;4.508;2023-08-17T02:33:23;102228.53;;;17.79;100.00
49030;BME280;43337;52.070;4.508;2023-08-17T02:35:50;102234.81;;;17.78;100.00
49030;BME280;43337;52.070;4.508;2023-08-17T02:38:16;102221.13;;;17.67;100.00
49030;BME280;43337;52.070;4.508;2023-08-17T02:40:41;102219.66;;;17.61;100.00
49030;BME280;43337;52.070;4.508;2023-08-17T02:43:06;102222.31;;;17.61;100.00
49030;BME280;43337;52.070;4.508;2023-08-17T02:45:33;102227.50;;;17.64;100.00
49030;BME280;43337;52.070;4.508;2023-08-17T02:47:59;102218.69;;;17.62;100.00
49030;BME280;43337;52.070;4.508;2023-08-17T02:50:24;102217.22;;;17.56;100.00
49030;BME280;43337;52.070;4.508;2023-08-17T02:52:49;102220.66;;;17.58;100.00
49030;BME280;43337;52.070;4.508;2023-08-17T02:55:15;102225.03;;;17.60;100.00
49030;BME280;43337;52.070;4.508;2023-08-17T02:57:40;102221.28;;;17.64;100.00
49030;BME280;43337;52.070;4.508;2023-08-17T03:00:06;102218.84;;;17.59;100.00
49030;BME280;43337;52.070;4.508;2023-08-17T03:02:32;102206.78;;;17.52;100.00
49030;BME280;43337;52.070;4.508;2023-08-17T03:04:57;102220.41;;;17.63;100.00
49030;BME280;43337;52.070;4.508;2023-08-17T03:07:22;102198.97;;;17.49;100.00
49030;BME280;43337;52.070;4.508;2023-08-17T03:09:48;102219.69;;;17.60;100.00
49030;BME280;43337;52.070;4.508;2023-08-17T03:12:13;102209.59;;;17.49;100.00
49030;BME280;43337;52.070;4.508;2023-08-17T03:14:38;102204.09;;;17.52;100.00
49030;BME280;43337;52.070;4.508;2023-08-17T03:17:04;102198.16;;;17.47;100.00
49030;BME280;43337;52.070;4.508;2023-08-17T03:19:29;102202.47;;;17.49;100.00
49030;BME280;43337;52.070;4.508;2023-08-17T03:21:54;102198.00;;;17.50;100.00
49030;BME280;43337;52.070;4.508;2023-08-17T03:24:20;102211.38;;;17.48;100.00
49030;BME280;43337;52.070;4.508;2023-08-17T03:26:45;102215.63;;;17.52;100.00
49030;BME280;43337;52.070;4.508;2023-08-17T03:29:10;102203.72;;;17.42;100.00
49030;BME280;43337;52.070;4.508;2023-08-17T03:31:36;102228.25;;;17.49;100.00
49030;BME280;43337;52.070;4.508;2023-08-17T03:34:01;102195.44;;;17.29;100.00
49030;BME280;43337;52.070;4.508;2023-08-17T03:36:27;102200.63;;;17.32;100.00
49030;BME280;43337;52.070;4.508;2023-08-17T03:38:53;102206.81;;;17.33;100.00
49030;BME280;43337;52.070;4.508;2023-08-17T03:41:18;102212.84;;;17.37;100.00
49030;BME280;43337;52.070;4.508;2023-08-17T03:43:44;102212.84;;;17.37;100.00
49030;BME280;43337;52.070;4.508;2023-08-17T03:46:09;102215.69;;;17.33;100.00
49030;BME280;43337;52.070;4.508;2023-08-17T03:48:35;102222.97;;;17.30;100.00
49030;BME280;43337;52.070;4.508;2023-08-17T03:51:00;102215.16;;;17.25;100.00
49030;BME280;43337;52.070;4.508;2023-08-17T03:53:27;102220.66;;;17.22;100.00
49030;BME280;43337;52.070;4.508;2023-08-17T03:55:52;102216.34;;;17.20;100.00
49030;BME280;43337;52.070;4.508;2023-08-17T03:58:18;102219.78;;;17.22;100.00
49030;BME280;43337;52.070;4.508;2023-08-17T04:00:51;102207.72;;;17.15;100.00
49030;BME280;43337;52.070;4.508;2023-08-17T04:03:17;102210.44;;;17.13;100.00
49030;BME280;43337;52.070;4.508;2023-08-17T04:05:42;102222.66;;;17.17;100.00
49030;BME280;43337;52.070;4.508;2023-08-17T04:08:08;102203.69;;;17.06;100.00
49030;BME280;43337;52.070;4.508;2023-08-17T04:10:33;102202.06;;;17.03;100.00
49030;BME280;43337;52.070;4.508;2023-08-17T04:12:59;102212.47;;;17.08;100.00
49030;BME280;43337;52.070;4.508;2023-08-17T04:15:24;102217.66;;;17.11;100.00
49030;BME280;43337;52.070;4.508;2023-08-17T04:17:49;102228.44;;;17.08;100.00
49030;BME280;43337;52.070;4.508;2023-08-17T04:20:15;102216.00;;;17.08;100.00
49030;BME280;43337;52.070;4.508;2023-08-17T04:22:40;102201.56;;;16.95;100.00
49030;BME280;43337;52.070;4.508;2023-08-17T04:25:06;102216.94;;;17.07;100.00
49030;BME280;43337;52.070;4.508;2023-08-17T04:27:32;102192.06;;;16.90;100.00
49030;BME280;43337;52.070;4.508;2023-08-17T04:29:58;102221.41;;;17.07;100.00
49030;BME280;43337;52.070;4.508;2023-08-17T04:32:23;102211.75;;;17.04;100.00
49030;BME280;43337;52.070;4.508;2023-08-17T04:34:49;102215.19;;;17.06;100.00
49030;BME280;43337;52.070;4.508;2023-08-17T04:37:14;102228.34;;;17.09;100.00
49030;BME280;43337;52.070;4.508;2023-08-17T04:39:40;102215.50;;;17.00;100.00
49030;BME280;43337;52.070;4.508;2023-08-17T04:42:06;102226.50;;;17.12;100.00
49030;BME280;43337;52.070;4.508;2023-08-17T04:44:31;102223.03;;;17.09;100.00
49030;BME280;43337;52.070;4.508;2023-08-17T04:46:57;102219.38;;;17.12;100.00
49030;BME280;43337;52.070;4.508;2023-08-17T04:49:22;102214.78;;;17.16;100.00
49030;BME280;43337;52.070;4.508;2023-08-17T04:51:47;102209.13;;;17.22;100.00
49030;BME280;43337;52.070;4.508;2023-08-17T04:54:13;102204.84;;;17.19;100.00
49030;BME280;43337;52.070;4.508;2023-08-17T04:56:38;102215.13;;;17.27;100.00
49030;BME280;43337;52.070;4.508;2023-08-17T04:59:03;102208.06;;;17.26;100.00
49030;BME280;43337;52.070;4.508;2023-08-17T05:01:29;102190.81;;;17.16;100.00
49030;BME280;43337;52.070;4.508;2023-08-17T05:03:54;102214.78;;;17.33;100.00
49030;BME280;43337;52.070;4.508;2023-08-17T05:06:20;102199.84;;;17.30;100.00
49030;BME280;43337;52.070;4.508;2023-08-17T05:08:45;102205.94;;;17.32;100.00
49030;BME280;43337;52.070;4.508;2023-08-17T05:11:10;102208.31;;;17.39;100.00
49030;BME280;43337;52.070;4.508;2023-08-17T05:13:36;102185.75;;;17.28;100.00
49030;BME280;43337;52.070;4.508;2023-08-17T05:16:01;102188.19;;;17.33;100.00
49030;BME280;43337;52.070;4.508;2023-08-17T05:18:26;102186.31;;;17.35;100.00
49030;BME280;43337;52.070;4.508;2023-08-17T05:20:52;102201.91;;;17.43;100.00
49030;BME280;43337;52.070;4.508;2023-08-17T05:23:17;102188.03;;;17.36;100.00
49030;BME280;43337;52.070;4.508;2023-08-17T05:25:47;102169.38;;;17.19;100.00
49030;BME280;43337;52.070;4.508;2023-08-17T05:28:13;102197.06;;;17.33;100.00
49030;BME280;43337;52.070;4.508;2023-08-17T05:30:38;102189.34;;;17.27;100.00
49030;BME280;43337;52.070;4.508;2023-08-17T05:33:03;102198.06;;;17.31;100.00
49030;BME280;43337;52.070;4.508;2023-08-17T05:35:29;102193.69;;;17.30;100.00
49030;BME280;43337;52.070;4.508;2023-08-17T05:37:54;102194.59;;;17.29;100.00
49030;BME280;43337;52.070;4.508;2023-08-17T05:40:19;102199.00;;;17.30;100.00
49030;BME280;43337;52.070;4.508;2023-08-17T05:42:45;102189.34;;;17.27;100.00
49030;BME280;43337;52.070;4.508;2023-08-17T05:45:10;102186.94;;;17.23;100.00
49030;BME280;43337;52.070;4.508;2023-08-17T05:47:36;102176.19;;;17.24;100.00
49030;BME280;43337;52.070;4.508;2023-08-17T05:50:03;102203.94;;;17.38;100.00
49030;BME280;43337;52.070;4.508;2023-08-17T05:52:28;102194.38;;;17.33;100.00
49030;BME280;43337;52.070;4.508;2023-08-17T05:54:54;102210.63;;;17.46;100.00
49030;BME280;43337;52.070;4.508;2023-08-17T05:57:19;102197.44;;;17.43;100.00
49030;BME280;43337;52.070;4.508;2023-08-17T05:59:44;102202.63;;;17.46;100.00
49030;BME280;43337;52.070;4.508;2023-08-17T06:02:10;102215.22;;;17.60;100.00
49030;BME280;43337;52.070;4.508;2023-08-17T06:04:35;102202.25;;;17.54;100.00
49030;BME280;43337;52.070;4.508;2023-08-17T06:07:00;102203.09;;;17.54;100.00
49030;BME280;43337;52.070;4.508;2023-08-17T06:09:26;102228.88;;;17.71;100.00
49030;BME280;43337;52.070;4.508;2023-08-17T06:11:51;102196.81;;;17.55;100.00
49030;BME280;43337;52.070;4.508;2023-08-17T06:14:17;102206.19;;;17.64;100.00
49030;BME280;43337;52.070;4.508;2023-08-17T06:16:42;102196.44;;;17.63;100.00
49030;BME280;43337;52.070;4.508;2023-08-17T06:19:07;102214.56;;;17.74;100.00
49030;BME280;43337;52.070;4.508;2023-08-17T06:21:32;102209.03;;;17.78;100.00
49030;BME280;43337;52.070;4.508;2023-08-17T06:23:58;102229.69;;;17.91;100.00
49030;BME280;43337;52.070;4.508;2023-08-17T06:26:23;102222.75;;;17.88;100.00
49030;BME280;43337;52.070;4.508;2023-08-17T06:28:49;102230.50;;;17.93;100.00
49030;BME280;43337;52.070;4.508;2023-08-17T06:31:15;102227.84;;;17.93;100.00
49030;BME280;43337;52.070;4.508;2023-08-17T06:33:40;102235.53;;;17.99;100.00
49030;BME280;43337;52.070;4.508;2023-08-17T06:36:05;102219.84;;;17.93;100.00
49030;BME280;43337;52.070;4.508;2023-08-17T06:38:31;102218.34;;;17.87;100.00
49030;BME280;43337;52.070;4.508;2023-08-17T06:40:56;102219.75;;;17.94;100.00
49030;BME280;43337;52.070;4.508;2023-08-17T06:43:21;102236.16;;;18.04;100.00
49030;BME280;43337;52.070;4.508;2023-08-17T06:45:47;102224.69;;;18.02;100.00
49030;BME280;43337;52.070;4.508;2023-08-17T06:48:12;102231.75;;;18.03;100.00
49030;BME280;43337;52.070;4.508;2023-08-17T06:50:38;102218.66;;;17.98;100.00
49030;BME280;43337;52.070;4.508;2023-08-17T06:53:04;102212.22;;;18.02;100.00
49030;BME280;43337;52.070;4.508;2023-08-17T06:55:29;102226.09;;;18.09;100.00
49030;BME280;43337;52.070;4.508;2023-08-17T06:57:55;102223.19;;;18.14;100.00
49030;BME280;43337;52.070;4.508;2023-08-17T07:00:21;102229.16;;;18.19;100.00
49030;BME280;43337;52.070;4.508;2023-08-17T07:02:47;102217.78;;;18.15;100.00
49030;BME280;43337;52.070;4.508;2023-08-17T07:05:14;102195.84;;;18.10;100.00
49030;BME280;43337;52.070;4.508;2023-08-17T07:07:40;102229.22;;;18.35;100.00
49030;BME280;43337;52.070;4.508;2023-08-17T07:10:05;102211.97;;;18.24;100.00
49030;BME280;43337;52.070;4.508;2023-08-17T07:12:32;102227.09;;;18.41;100.00
49030;BME280;43337;52.070;4.508;2023-08-17T07:14:57;102230.22;;;18.49;100.00
49030;BME280;43337;52.070;4.508;2023-08-17T07:17:23;102212.66;;;18.45;100.00
49030;BME280;43337;52.070;4.508;2023-08-17T07:19:48;102224.53;;;18.55;100.00
49030;BME280;43337;52.070;4.508;2023-08-17T07:22:13;102205.25;;;18.50;100.00
49030;BME280;43337;52.070;4.508;2023-08-17T07:24:39;102235.78;;;18.78;100.00
49030;BME280;43337;52.070;4.508;2023-08-17T07:27:04;102217.72;;;18.83;100.00
49030;BME280;43337;52.070;4.508;2023-08-17T07:29:30;102212.66;;;18.94;100.00
49030;BME280;43337;52.070;4.508;2023-08-17T07:31:55;102228.22;;;19.18;100.00
49030;BME280;43337;52.070;4.508;2023-08-17T07:34:23;102223.25;;;19.27;100.00
49030;BME280;43337;52.070;4.508;2023-08-17T07:36:49;102247.94;;;19.47;100.00
49030;BME280;43337;52.070;4.508;2023-08-17T07:39:14;102218.91;;;19.41;100.00
49030;BME280;43337;52.070;4.508;2023-08-17T07:41:39;102237.59;;;19.57;100.00
49030;BME280;43337;52.070;4.508;2023-08-17T07:44:05;102220.03;;;19.52;100.00
49030;BME280;43337;52.070;4.508;2023-08-17T07:46:30;102234.72;;;19.75;100.00
49030;BME280;43337;52.070;4.508;2023-08-17T07:48:55;102234.78;;;19.90;100.00
49030;BME280;43337;52.070;4.508;2023-08-17T07:51:21;102211.56;;;19.90;100.00
49030;BME280;43337;52.070;4.508;2023-08-17T07:53:46;102221.66;;;20.15;100.00
49030;BME280;43337;52.070;4.508;2023-08-17T07:56:12;102208.13;;;20.18;100.00
49030;BME280;43337;52.070;4.508;2023-08-17T07:58:37;102195.41;;;20.22;100.00
49030;BME280;43337;52.070;4.508;2023-08-17T08:01:02;102220.34;;;20.37;100.00
49030;BME280;43337;52.070;4.508;2023-08-17T08:03:28;102210.09;;;20.29;100.00
49030;BME280;43337;52.070;4.508;2023-08-17T08:05:53;102210.72;;;20.34;100.00
49030;BME280;43337;52.070;4.508;2023-08-17T08:08:18;102221.78;;;20.42;100.00
49030;BME280;43337;52.070;4.508;2023-08-17T08:10:45;102229.09;;;20.55;100.00
49030;BME280;43337;52.070;4.508;2023-08-17T08:13:10;102220.19;;;20.54;100.00
49030;BME280;43337;52.070;4.508;2023-08-17T08:15:36;102214.84;;;20.54;100.00
49030;BME280;43337;52.070;4.508;2023-08-17T08:18:01;102213.88;;;20.55;100.00
49030;BME280;43337;52.070;4.508;2023-08-17T08:20:26;102220.19;;;20.54;100.00
49030;BME280;43337;52.070;4.508;2023-08-17T08:22:52;102193.22;;;20.43;100.00
49030;BME280;43337;52.070;4.508;2023-08-17T08:25:17;102191.22;;;20.46;100.00
49030;BME280;43337;52.070;4.508;2023-08-17T08:27:42;102196.13;;;20.54;100.00
49030;BME280;43337;52.070;4.508;2023-08-17T08:30:08;102204.88;;;20.70;100.00
49030;BME280;43337;52.070;4.508;2023-08-17T08:32:33;102197.53;;;20.74;100.00
49030;BME280;43337;52.070;4.508;2023-08-17T08:34:59;102201.53;;;20.81;100.00
49030;BME280;43337;52.070;4.508;2023-08-17T08:37:24;102207.91;;;20.93;100.00
49030;BME280;43337;52.070;4.508;2023-08-17T08:39:54;102191.66;;;20.96;100.00
49030;BME280;43337;52.070;4.508;2023-08-17T08:42:20;102185.22;;;20.98;100.00
49030;BME280;43337;52.070;4.508;2023-08-17T08:44:46;102196.75;;;21.13;100.00
49030;BME280;43337;52.070;4.508;2023-08-17T08:47:13;102185.34;;;21.24;100.00
49030;BME280;43337;52.070;4.508;2023-08-17T08:49:58;102168.06;;;21.15;100.00
49030;BME280;43337;52.070;4.508;2023-08-17T08:52:42;102188.38;;;21.32;100.00
49030;BME280;43337;52.070;4.508;2023-08-17T08:55:41;102201.75;;;21.47;100.00
49030;BME280;43337;52.070;4.508;2023-08-17T08:58:08;102186.44;;;21.49;100.00
49030;BME280;43337;52.070;4.508;2023-08-17T09:00:34;102194.06;;;21.55;100.00
49030;BME280;43337;52.070;4.508;2023-08-17T09:03:02;102193.66;;;21.61;100.00
49030;BME280;43337;52.070;4.508;2023-08-17T09:05:28;102186.34;;;21.63;100.00
49030;BME280;43337;52.070;4.508;2023-08-17T09:07:54;102175.94;;;21.58;100.00
49030;BME280;43337;52.070;4.508;2023-08-17T09:10:20;102190.03;;;21.75;100.00
49030;BME280;43337;52.070;4.508;2023-08-17T09:12:46;102188.84;;;21.79;100.00
49030;BME280;43337;52.070;4.508;2023-08-17T09:15:15;102183.19;;;21.83;100.00
49030;BME280;43337;52.070;4.508;2023-08-17T09:17:40;102173.53;;;21.81;100.00
49030;BME280;43337;52.070;4.508;2023-08-17T09:20:06;102180.84;;;21.91;100.00
49030;BME280;43337;52.070;4.508;2023-08-17T09:22:38;102183.09;;;21.98;100.00
49030;BME280;43337;52.070;4.508;2023-08-17T09:25:05;102180.72;;;22.06;100.00
49030;BME280;43337;52.070;4.508;2023-08-17T09:27:31;102169.78;;;22.09;100.00
49030;BME280;43337;52.070;4.508;2023-08-17T09:30:02;102179.81;;;22.20;100.00
49030;BME280;43337;52.070;4.508;2023-08-17T09:32:33;102179.78;;;22.32;100.00
49030;BME280;43337;52.070;4.508;2023-08-17T09:35:02;102174.97;;;22.37;100.00
49030;BME280;43337;52.070;4.508;2023-08-17T09:37:29;102171.84;;;22.56;100.00
49030;BME280;43337;52.070;4.508;2023-08-17T09:39:55;102154.00;;;22.55;100.00
49030;BME280;43337;52.070;4.508;2023-08-17T09:42:21;102153.22;;;22.66;100.00
49030;BME280;43337;52.070;4.508;2023-08-17T09:44:48;102161.22;;;22.79;100.00
49030;BME280;43337;52.070;4.508;2023-08-17T09:47:14;102150.56;;;22.90;100.00
49030;BME280;43337;52.070;4.508;2023-08-17T09:49:39;102139.09;;;22.88;100.00
49030;BME280;43337;52.070;4.508;2023-08-17T09:52:05;102138.66;;;22.94;100.00
49030;BME280;43337;52.070;4.508;2023-08-17T09:54:31;102138.31;;;22.99;100.00
49030;BME280;43337;52.070;4.508;2023-08-17T09:56:58;102152.25;;;23.04;100.00
49030;BME280;43337;52.070;4.508;2023-08-17T09:59:23;102157.41;;;23.07;100.00
49030;BME280;43337;52.070;4.508;2023-08-17T10:01:50;102153.13;;;23.04;100.00
49030;BME280;43337;52.070;4.508;2023-08-17T10:04:20;102145.41;;;23.00;100.00
49030;BME280;43337;52.070;4.508;2023-08-17T10:06:48;102137.13;;;22.90;100.00
49030;BME280;43337;52.070;4.508;2023-08-17T10:09:23;102146.94;;;22.78;100.00
49030;BME280;43337;52.070;4.508;2023-08-17T10:11:52;102161.78;;;22.84;100.00
49030;BME280;43337;52.070;4.508;2023-08-17T10:14:29;102156.09;;;22.76;100.00
49030;BME280;43337;52.070;4.508;2023-08-17T10:17:07;102141.50;;;22.67;100.00
49030;BME280;43337;52.070;4.508;2023-08-17T10:19:52;102156.50;;;22.82;100.00
49030;BME280;43337;52.070;4.508;2023-08-17T10:22:26;102155.28;;;22.86;100.00
49030;BME280;43337;52.070;4.508;2023-08-17T10:24:56;102141.88;;;22.86;100.00
49030;BME280;43337;52.070;4.508;2023-08-17T10:27:22;102119.53;;;22.86;100.00
49030;BME280;43337;52.070;4.508;2023-08-17T10:29:48;102147.53;;;23.07;100.00
49030;BME280;43337;52.070;4.508;2023-08-17T10:32:15;102116.13;;;23.08;100.00
49030;BME280;43337;52.070;4.508;2023-08-17T10:34:41;102145.78;;;23.30;100.00
49030;BME280;43337;52.070;4.508;2023-08-17T10:37:07;102134.66;;;23.24;100.00
49030;BME280;43337;52.070;4.508;2023-08-17T10:39:32;102144.69;;;23.33;100.00
49030;BME280;43337;52.070;4.508;2023-08-17T10:42:00;102131.72;;;23.27;100.00
49030;BME280;43337;52.070;4.508;2023-08-17T10:44:48;102116.69;;;23.24;100.00
49030;BME280;43337;52.070;4.508;2023-08-17T10:47:28;102132.13;;;23.33;100.00
49030;BME280;43337;52.070;4.508;2023-08-17T10:52:28;102136.69;;;23.55;100.00
49030;BME280;43337;52.070;4.508;2023-08-17T10:54:54;102136.97;;;23.63;100.00
49030;BME280;43337;52.070;4.508;2023-08-17T11:00:13;102145.47;;;23.81;100.00
49030;BME280;43337;52.070;4.508;2023-08-17T11:02:39;102128.84;;;23.76;100.00
49030;BME280;43337;52.070;4.508;2023-08-17T11:05:05;102128.00;;;23.76;100.00
49030;BME280;43337;52.070;4.508;2023-08-17T11:07:40;102147.47;;;23.79;100.00
49030;BME280;43337;52.070;4.508;2023-08-17T11:10:12;102142.94;;;23.80;100.00
49030;BME280;43337;52.070;4.508;2023-08-17T11:12:38;102145.03;;;23.87;100.00
49030;BME280;43337;52.070;4.508;2023-08-17T11:15:03;102129.72;;;23.88;100.00
49030;BME280;43337;52.070;4.508;2023-08-17T11:17:29;102109.19;;;23.87;100.00
49030;BME280;43337;52.070;4.508;2023-08-17T11:19:55;102127.91;;;24.00;100.00
49030;BME280;43337;52.070;4.508;2023-08-17T11:22:20;102121.44;;;23.91;100.00
49030;BME280;43337;52.070;4.508;2023-08-17T11:24:46;102118.59;;;23.93;100.00
49030;BME280;43337;52.070;4.508;2023-08-17T11:27:11;102123.16;;;24.03;100.00
49030;BME280;43337;52.070;4.508;2023-08-17T11:29:37;102116.41;;;23.98;100.00
49030;BME280;43337;52.070;4.508;2023-08-17T11:32:03;102115.44;;;23.99;100.00
49030;BME280;43337;52.070;4.508;2023-08-17T11:34:29;102112.75;;;24.10;100.00
49030;BME280;43337;52.070;4.508;2023-08-17T11:36:57;102120.56;;;24.24;100.00
49030;BME280;43337;52.070;4.508;2023-08-17T11:39:22;102115.31;;;24.23;100.00
49030;BME280;43337;52.070;4.508;2023-08-17T11:41:48;102113.63;;;24.22;100.00
49030;BME280;43337;52.070;4.508;2023-08-17T11:44:14;102119.22;;;24.30;100.00
49030;BME280;43337;52.070;4.508;2023-08-17T11:46:40;102130.34;;;24.25;100.00
49030;BME280;43337;52.070;4.508;2023-08-17T11:49:06;102129.00;;;24.20;100.00
49030;BME280;43337;52.070;4.508;2023-08-17T11:51:31;102115.78;;;24.17;100.00
49030;BME280;43337;52.070;4.508;2023-08-17T11:54:00;102112.72;;;24.32;100.00
49030;BME280;43337;52.070;4.508;2023-08-17T11:56:26;102101.97;;;24.32;100.00
49030;BME280;43337;52.070;4.508;2023-08-17T11:58:51;102115.34;;;24.45;100.00
49030;BME280;43337;52.070;4.508;2023-08-17T12:01:16;102109.34;;;24.42;100.00
49030;BME280;43337;52.070;4.508;2023-08-17T12:03:42;102126.97;;;24.46;100.00
49030;BME280;43337;52.070;4.508;2023-08-17T12:06:08;102116.06;;;24.47;100.00
49030;BME280;43337;52.070;4.508;2023-08-17T12:08:34;102111.66;;;24.46;100.00
49030;BME280;43337;52.070;4.508;2023-08-17T12:11:00;102120.44;;;24.48;100.00
49030;BME280;43337;52.070;4.508;2023-08-17T12:13:30;102095.34;;;24.36;100.00
49030;BME280;43337;52.070;4.508;2023-08-17T12:15:55;102101.38;;;24.40;100.00
49030;BME280;43337;52.070;4.508;2023-08-17T12:18:22;102113.75;;;24.43;100.00
49030;BME280;43337;52.070;4.508;2023-08-17T12:20:52;102111.66;;;24.46;100.00
49030;BME280;43337;52.070;4.508;2023-08-17T12:23:18;102117.75;;;24.48;100.00
49030;BME280;43337;52.070;4.508;2023-08-17T12:25:43;102109.09;;;24.45;100.00
49030;BME280;43337;52.070;4.508;2023-08-17T12:28:12;102101.72;;;24.35;100.00
49030;BME280;43337;52.070;4.508;2023-08-17T12:30:37;102111.28;;;24.40;100.00
49030;BME280;43337;52.070;4.508;2023-08-17T12:33:03;102108.81;;;24.36;100.00
49030;BME280;43337;52.070;4.508;2023-08-17T12:35:30;102100.63;;;24.27;100.00
49030;BME280;43337;52.070;4.508;2023-08-17T12:37:56;102101.72;;;24.13;100.00
49030;BME280;43337;52.070;4.508;2023-08-17T12:40:22;102115.94;;;24.15;100.00
49030;BME280;43337;52.070;4.508;2023-08-17T12:42:48;102113.72;;;24.09;100.00
49030;BME280;43337;52.070;4.508;2023-08-17T12:45:14;102119.34;;;24.06;100.00